Time;durP1;ratioP1;P1;durP2;ratioP2;P2;SDS_P1;SDS_P2;PMS_P1;PMS_P2;Temp;Humidity;BMP_temperature;BMP_pressure;BME280_temperature;BME280_humidity;BME280_pressure;Samples;Min_cycle;Max_cycle;Signal;HPM_P1;HPM_P2
2021/07/02 00:01:48;;;;;;;11.90;5.53;;;20.00;80.00;;;;;;5003580;28;20024;-69
2021/07/02 00:04:14;;;;;;;11.23;4.85;;;20.00;80.00;;;;;;5018968;28;20116;-70
2021/07/02 00:06:39;;;;;;;9.30;5.28;;;20.00;80.10;;;;;;5018140;28;20053;-70
2021/07/02 00:09:05;;;;;;;12.38;5.30;;;20.00;80.00;;;;;;5021332;28;20092;-71
2021/07/02 00:11:30;;;;;;;8.65;4.78;;;20.00;80.10;;;;;;5020437;28;20041;-70
2021/07/02 00:13:56;;;;;;;8.88;5.03;;;20.00;80.00;;;;;;5022832;28;20021;-70
2021/07/02 00:16:21;;;;;;;9.10;4.90;;;20.00;80.00;;;;;;5037816;28;20027;-70
2021/07/02 00:18:47;;;;;;;9.07;5.00;;;20.00;80.00;;;;;;5037602;28;20022;-71
2021/07/02 00:21:12;;;;;;;9.07;5.07;;;20.00;80.00;;;;;;5019106;28;20021;-70
2021/07/02 00:23:38;;;;;;;9.10;5.22;;;20.00;80.00;;;;;;5012064;28;20121;-70
2021/07/02 00:26:03;;;;;;;10.40;5.68;;;20.00;80.00;;;;;;5017302;28;20029;-70
2021/07/02 00:28:29;;;;;;;9.85;4.95;;;20.00;80.00;;;;;;5002119;28;20034;-71
2021/07/02 00:30:55;;;;;;;10.65;5.35;;;20.00;80.00;;;;;;5026620;28;20088;-70
2021/07/02 00:33:20;;;;;;;8.98;5.32;;;20.00;80.00;;;;;;5020832;28;20459;-70
2021/07/02 00:35:46;;;;;;;10.55;5.15;;;20.00;80.10;;;;;;5037349;28;20038;-71
2021/07/02 00:38:11;;;;;;;10.32;4.90;;;20.00;79.90;;;;;;5003003;28;20443;-71
2021/07/02 00:40:38;;;;;;;10.13;5.00;;;20.00;80.00;;;;;;5032080;28;20117;-70
2021/07/02 00:43:04;;;;;;;10.98;5.10;;;20.00;80.00;;;;;;5037650;28;20079;-70
2021/07/02 00:45:30;;;;;;;9.60;5.03;;;19.90;80.00;;;;;;5034928;28;20025;-71
2021/07/02 00:47:55;;;;;;;9.85;5.05;;;19.90;80.00;;;;;;5034165;28;20025;-70
2021/07/02 00:50:21;;;;;;;9.45;4.93;;;19.90;80.00;;;;;;5017497;28;20029;-70
2021/07/02 00:52:47;;;;;;;10.23;5.00;;;19.90;80.00;;;;;;5014571;28;20092;-70
2021/07/02 00:55:12;;;;;;;8.43;4.78;;;19.90;80.10;;;;;;5015485;28;20045;-70
2021/07/02 00:57:38;;;;;;;11.35;5.25;;;19.90;80.10;;;;;;5014266;28;20403;-72
2021/07/02 01:00:08;;;;;;;9.20;4.57;;;19.90;80.10;;;;;;4997693;28;20087;-71
2021/07/02 01:02:34;;;;;;;11.32;5.18;;;19.90;80.10;;;;;;5007574;28;20038;-72
2021/07/02 01:05:00;;;;;;;8.38;4.65;;;19.90;80.10;;;;;;5014465;28;20032;-71
2021/07/02 01:07:25;;;;;;;8.70;4.85;;;19.90;80.10;;;;;;4996393;28;20026;-70
2021/07/02 01:09:51;;;;;;;10.15;5.00;;;19.90;80.10;;;;;;5015284;28;20033;-70
2021/07/02 01:12:16;;;;;;;9.50;5.05;;;19.90;80.10;;;;;;5014282;28;20037;-69
2021/07/02 01:14:42;;;;;;;10.52;5.15;;;19.90;80.10;;;;;;5014242;28;20033;-70
2021/07/02 01:17:08;;;;;;;7.97;4.75;;;19.90;80.10;;;;;;5021852;28;20022;-70
2021/07/02 01:19:34;;;;;;;7.90;4.47;;;19.90;80.20;;;;;;5014039;28;20021;-70
2021/07/02 01:22:00;;;;;;;8.57;4.47;;;19.90;80.10;;;;;;5014106;28;20048;-70
2021/07/02 01:24:25;;;;;;;8.50;4.82;;;19.90;80.20;;;;;;4996487;28;20022;-70
2021/07/02 01:26:52;;;;;;;9.80;4.55;;;19.90;80.20;;;;;;4998900;28;20025;-71
2021/07/02 01:29:18;;;;;;;10.00;4.82;;;19.90;80.20;;;;;;5002676;28;20033;-70
2021/07/02 01:31:44;;;;;;;9.25;4.88;;;19.90;80.20;;;;;;5029824;28;20522;-70
2021/07/02 01:34:09;;;;;;;10.20;4.45;;;19.90;80.10;;;;;;5033644;28;20026;-70
2021/07/02 01:36:35;;;;;;;11.82;5.07;;;19.90;80.30;;;;;;4998257;28;20029;-71
2021/07/02 01:39:01;;;;;;;9.30;4.88;;;19.90;80.30;;;;;;5013687;28;20032;-72
2021/07/02 01:41:27;;;;;;;8.65;4.55;;;19.90;80.30;;;;;;5032626;28;20094;-70
2021/07/02 01:43:52;;;;;;;9.60;4.90;;;19.90;80.30;;;;;;5033763;28;20519;-69
2021/07/02 01:46:18;;;;;;;8.50;4.57;;;19.90;80.40;;;;;;5022999;28;20030;-70
2021/07/02 01:48:44;;;;;;;8.43;4.28;;;19.90;80.40;;;;;;4996649;28;20038;-70
2021/07/02 01:51:10;;;;;;;10.35;4.60;;;19.90;80.50;;;;;;5013293;28;20062;-70
2021/07/02 01:53:36;;;;;;;10.18;4.97;;;19.90;80.40;;;;;;5008402;28;20061;-71
2021/07/02 01:56:02;;;;;;;10.75;4.65;;;19.90;80.50;;;;;;5011471;28;20025;-71
2021/07/02 01:58:27;;;;;;;8.23;4.68;;;19.90;80.50;;;;;;5031876;28;20387;-72
2021/07/02 02:00:53;;;;;;;9.45;4.75;;;19.90;80.50;;;;;;5001994;28;20058;-70
2021/07/02 02:03:19;;;;;;;8.75;4.45;;;19.90;81.10;;;;;;4995734;28;20037;-70
2021/07/02 02:05:44;;;;;;;8.82;5.00;;;19.90;80.50;;;;;;5030229;28;20451;-70
2021/07/02 02:08:10;;;;;;;13.25;4.68;;;19.90;80.50;;;;;;5013036;28;20572;-70
2021/07/02 02:10:35;;;;;;;8.18;4.72;;;19.90;80.60;;;;;;5023026;28;20554;-69
2021/07/02 02:13:01;;;;;;;11.45;5.30;;;19.90;80.50;;;;;;5013190;28;20017;-70
2021/07/02 02:15:26;;;;;;;9.13;4.60;;;19.90;80.60;;;;;;5030389;28;20479;-70
2021/07/02 02:17:52;;;;;;;8.43;4.78;;;19.90;80.60;;;;;;5031946;28;20029;-71
2021/07/02 02:20:18;;;;;;;9.57;4.90;;;19.90;80.50;;;;;;5032590;28;20033;-70
2021/07/02 02:22:43;;;;;;;8.43;4.80;;;19.90;80.60;;;;;;5016564;28;20038;-70
2021/07/02 02:25:10;;;;;;;8.23;4.63;;;19.90;80.60;;;;;;5016169;28;20101;-70
2021/07/02 02:27:36;;;;;;;9.27;4.78;;;19.80;80.50;;;;;;5025306;28;20029;-70
2021/07/02 02:30:04;;;;;;;8.05;4.35;;;19.90;80.60;;;;;;5013032;28;20052;-70
2021/07/02 02:32:30;;;;;;;8.80;4.47;;;19.80;80.50;;;;;;5012723;28;20026;-69
2021/07/02 02:34:55;;;;;;;8.68;4.68;;;19.90;80.60;;;;;;5012687;28;20049;-69
2021/07/02 02:37:21;;;;;;;9.02;4.72;;;19.80;80.50;;;;;;5012396;28;20056;-69
2021/07/02 02:39:46;;;;;;;7.45;4.78;;;19.90;80.50;;;;;;5013634;28;20025;-71
2021/07/02 02:42:12;;;;;;;8.68;4.35;;;19.80;80.50;;;;;;5013700;28;20057;-69
2021/07/02 02:44:37;;;;;;;8.98;4.50;;;19.90;80.50;;;;;;4995030;28;20037;-69
2021/07/02 02:47:03;;;;;;;11.13;4.50;;;19.80;80.50;;;;;;4998327;28;20029;-70
2021/07/02 02:49:29;;;;;;;7.50;4.43;;;19.80;80.60;;;;;;5033142;28;20014;-72
2021/07/02 02:51:54;;;;;;;7.45;4.45;;;19.80;80.60;;;;;;4997216;28;20117;-70
2021/07/02 02:54:20;;;;;;;10.40;4.82;;;19.80;80.60;;;;;;4994689;28;20117;-70
2021/07/02 02:57:04;;;;;;;8.77;4.43;;;19.90;80.60;;;;;;4999519;28;20030;-71
2021/07/02 02:59:30;;;;;;;7.18;4.00;;;19.80;80.50;;;;;;5012357;28;20446;-71
2021/07/02 03:01:55;;;;;;;8.63;4.57;;;19.80;80.60;;;;;;5003906;28;20025;-70
2021/07/02 03:04:21;;;;;;;8.75;4.30;;;19.80;80.60;;;;;;5031736;28;20376;-72
2021/07/02 03:06:47;;;;;;;8.60;4.45;;;19.80;80.60;;;;;;5029971;28;20066;-71
2021/07/02 03:09:12;;;;;;;8.15;4.57;;;19.80;80.60;;;;;;4999847;28;20057;-70
2021/07/02 03:11:38;;;;;;;9.18;4.35;;;19.80;80.60;;;;;;5031636;28;20434;-72
2021/07/02 03:14:03;;;;;;;7.72;4.55;;;19.80;80.60;;;;;;5021769;28;20044;-70
2021/07/02 03:16:31;;;;;;;7.97;4.25;;;19.80;80.60;;;;;;4997971;28;20017;-70
2021/07/02 03:18:56;;;;;;;8.88;4.30;;;19.80;80.60;;;;;;5014326;28;20042;-70
2021/07/02 03:21:22;;;;;;;9.50;4.82;;;19.80;80.70;;;;;;4994459;28;20026;-70
2021/07/02 03:23:47;;;;;;;8.90;4.53;;;19.80;80.70;;;;;;5012072;28;20053;-70
2021/07/02 03:26:16;;;;;;;9.50;4.25;;;19.80;80.70;;;;;;5012084;28;20064;-70
2021/07/02 03:28:42;;;;;;;8.38;4.28;;;19.80;80.60;;;;;;5017545;28;20069;-70
2021/07/02 03:31:07;;;;;;;8.63;4.13;;;19.80;80.60;;;;;;5011897;28;20030;-70
2021/07/02 03:33:33;;;;;;;9.73;4.90;;;19.80;80.60;;;;;;5012648;28;20022;-70
2021/07/02 03:35:58;;;;;;;8.85;4.20;;;19.80;80.70;;;;;;5013078;28;20022;-71
2021/07/02 03:38:24;;;;;;;7.95;4.28;;;19.80;80.70;;;;;;5011684;28;20042;-71
2021/07/02 03:40:49;;;;;;;8.35;4.35;;;19.80;80.70;;;;;;5011833;28;20033;-70
2021/07/02 03:43:16;;;;;;;9.18;4.72;;;19.80;80.60;;;;;;5012877;28;20402;-70
2021/07/02 03:45:41;;;;;;;8.02;4.40;;;19.80;80.60;;;;;;5012907;28;20025;-70
2021/07/02 03:48:07;;;;;;;9.50;4.30;;;19.80;80.60;;;;;;5013464;28;20047;-71
2021/07/02 03:50:33;;;;;;;7.47;4.07;;;19.80;80.60;;;;;;5031400;28;20129;-70
2021/07/02 03:52:58;;;;;;;8.70;4.70;;;19.80;80.60;;;;;;5003971;28;20567;-70
2021/07/02 03:55:24;;;;;;;6.82;4.10;;;19.80;80.60;;;;;;5011701;28;20037;-71
2021/07/02 03:57:49;;;;;;;7.70;4.80;;;19.70;80.60;;;;;;5028348;28;20034;-70
2021/07/02 04:00:15;;;;;;;7.78;4.32;;;19.80;80.60;;;;;;5015232;28;20034;-70
2021/07/02 04:02:41;;;;;;;9.75;4.70;;;19.80;80.60;;;;;;5011733;28;20055;-72
2021/07/02 04:05:07;;;;;;;10.75;4.32;;;19.80;80.60;;;;;;4994030;28;20033;-71
2021/07/02 04:07:33;;;;;;;9.20;4.70;;;19.80;80.50;;;;;;5014728;28;20037;-70
2021/07/02 04:09:58;;;;;;;9.00;4.30;;;19.80;80.80;;;;;;5011044;28;20029;-71
2021/07/02 04:12:24;;;;;;;8.18;4.78;;;19.80;80.90;;;;;;5030140;28;20380;-70
2021/07/02 04:14:50;;;;;;;9.90;4.72;;;19.80;80.90;;;;;;5024421;28;20059;-71
2021/07/02 04:17:16;;;;;;;9.00;4.22;;;19.90;80.90;;;;;;5000425;28;20049;-70
2021/07/02 04:19:42;;;;;;;7.90;4.47;;;19.80;80.80;;;;;;4988186;28;20030;-69
2021/07/02 04:22:08;;;;;;;11.48;4.50;;;19.80;81.10;;;;;;4998883;28;20396;-71
2021/07/02 04:24:34;;;;;;;9.82;4.20;;;19.80;81.00;;;;;;5008891;28;20029;-71
2021/07/02 04:26:59;;;;;;;7.95;4.30;;;19.80;80.90;;;;;;5004738;28;20037;-70
2021/07/02 04:29:26;;;;;;;10.80;4.57;;;19.80;80.80;;;;;;4994544;28;20037;-70
2021/07/02 04:31:52;;;;;;;8.13;4.43;;;19.80;80.80;;;;;;5002591;28;20068;-71
2021/07/02 04:34:18;;;;;;;7.63;4.25;;;19.90;80.60;;;;;;5007027;28;20029;-71
2021/07/02 04:36:45;;;;;;;10.10;4.65;;;19.90;80.40;;;;;;5024457;28;20091;-69
2021/07/02 04:39:11;;;;;;;8.27;4.18;;;19.90;80.30;;;;;;5010805;28;20523;-69
2021/07/02 04:41:37;;;;;;;9.43;4.28;;;19.90;80.20;;;;;;4998787;28;20061;-69
2021/07/02 04:44:04;;;;;;;9.90;4.22;;;19.90;80.20;;;;;;4990718;28;20040;-67
2021/07/02 04:46:30;;;;;;;8.45;4.47;;;20.00;80.10;;;;;;4994358;28;20040;-68
2021/07/02 04:48:55;;;;;;;8.70;4.43;;;19.90;80.00;;;;;;5005873;28;20049;-67
2021/07/02 04:51:21;;;;;;;7.72;3.90;;;19.90;80.00;;;;;;5022843;28;20052;-70
2021/07/02 04:53:47;;;;;;;19.15;5.30;;;20.00;80.10;;;;;;5008023;28;20598;-68
2021/07/02 04:56:13;;;;;;;8.38;4.05;;;20.00;80.10;;;;;;5007623;28;20060;-72
2021/07/02 04:58:40;;;;;;;12.25;5.75;;;20.00;80.00;;;;;;5026447;28;20495;-68
2021/07/02 05:01:06;;;;;;;14.77;8.55;;;20.00;80.50;;;;;;5027797;28;20495;-67
2021/07/02 05:03:32;;;;;;;18.60;8.25;;;20.00;80.70;;;;;;5007616;28;20041;-70
2021/07/02 05:05:58;;;;;;;20.35;8.13;;;20.00;80.00;;;;;;4993047;28;20571;-68
2021/07/02 05:08:24;;;;;;;20.42;7.20;;;20.00;80.00;;;;;;5003772;28;20037;-67
2021/07/02 05:10:50;;;;;;;15.05;7.35;;;20.10;79.90;;;;;;5016870;28;20053;-70
2021/07/02 05:13:15;;;;;;;12.77;5.97;;;20.00;80.00;;;;;;5012044;28;20588;-67
2021/07/02 05:15:41;;;;;;;20.45;6.05;;;20.00;79.80;;;;;;4999069;28;20033;-67
2021/07/02 05:18:07;;;;;;;17.27;5.72;;;20.10;80.80;;;;;;5025470;28;20030;-66
2021/07/02 05:20:33;;;;;;;19.08;5.40;;;20.20;81.50;;;;;;5000067;28;20029;-69
2021/07/02 05:22:58;;;;;;;20.35;5.15;;;20.20;80.50;;;;;;4992767;28;20087;-68
2021/07/02 05:25:24;;;;;;;14.13;5.50;;;20.20;80.10;;;;;;4992430;28;20037;-66
2021/07/02 05:27:49;;;;;;;22.83;6.25;;;20.20;80.80;;;;;;4990908;28;20061;-68
2021/07/02 05:30:16;;;;;;;17.45;6.22;;;20.30;81.20;;;;;;5000263;28;20437;-68
2021/07/02 05:32:41;;;;;;;14.00;6.38;;;20.30;80.40;;;;;;5009286;28;20013;-68
2021/07/02 05:35:08;;;;;;;15.57;6.32;;;20.20;79.70;;;;;;5010161;28;20025;-66
2021/07/02 05:37:34;;;;;;;17.83;6.53;;;20.20;79.20;;;;;;5009817;28;20041;-69
2021/07/02 05:40:00;;;;;;;16.35;6.70;;;20.20;79.60;;;;;;5009433;28;20322;-65
2021/07/02 05:42:25;;;;;;;15.85;6.53;;;20.10;79.80;;;;;;5009822;28;20032;-67
2021/07/02 05:44:52;;;;;;;13.10;6.10;;;20.10;79.70;;;;;;5009005;28;20120;-66
2021/07/02 05:47:17;;;;;;;17.08;6.68;;;20.10;79.70;;;;;;5009015;28;20026;-69
2021/07/02 05:49:43;;;;;;;14.07;6.15;;;20.10;79.70;;;;;;5009461;28;20549;-66
2021/07/02 05:52:09;;;;;;;13.20;6.22;;;20.10;79.80;;;;;;5009427;28;20057;-70
2021/07/02 05:54:34;;;;;;;12.35;6.10;;;20.00;79.70;;;;;;5009763;28;20026;-67
2021/07/02 05:57:00;;;;;;;14.07;6.85;;;20.00;79.70;;;;;;5009074;28;20112;-69
2021/07/02 05:59:25;;;;;;;11.68;6.00;;;20.00;79.70;;;;;;4994082;28;20931;-67
2021/07/02 06:01:51;;;;;;;13.15;6.18;;;20.10;79.70;;;;;;4989386;28;20022;-69
2021/07/02 06:04:16;;;;;;;12.80;5.70;;;20.00;79.80;;;;;;4989212;28;20483;-69
2021/07/02 06:06:47;;;;;;;13.35;5.95;;;20.00;80.50;;;;;;4989290;28;20034;-68
2021/07/02 06:09:12;;;;;;;12.25;5.32;;;20.00;79.80;;;;;;4988522;28;20030;-72
2021/07/02 06:11:38;;;;;;;12.88;5.93;;;20.10;79.80;;;;;;4989198;28;20022;-69
2021/07/02 06:14:03;;;;;;;11.48;5.50;;;20.10;79.60;;;;;;4988851;28;20136;-66
2021/07/02 06:16:29;;;;;;;12.13;5.82;;;20.20;79.50;;;;;;4989101;28;20116;-69
2021/07/02 06:18:54;;;;;;;10.93;6.03;;;20.10;79.40;;;;;;4988722;28;20075;-69
2021/07/02 06:21:20;;;;;;;11.90;5.35;;;20.20;79.40;;;;;;4988924;28;20152;-69
2021/07/02 06:23:46;;;;;;;10.25;5.55;;;20.10;79.30;;;;;;4989320;28;20026;-66
2021/07/02 06:26:12;;;;;;;11.40;5.55;;;20.10;79.80;;;;;;4989553;28;20034;-70
2021/07/02 06:28:37;;;;;;;10.20;5.30;;;20.10;79.90;;;;;;4988493;28;20026;-71
2021/07/02 06:31:04;;;;;;;16.20;6.25;;;20.10;79.20;;;;;;4990187;28;20021;-69
2021/07/02 06:33:30;;;;;;;10.75;6.18;;;20.20;79.20;;;;;;5010136;28;20513;-67
2021/07/02 06:35:56;;;;;;;10.70;6.15;;;20.10;79.10;;;;;;5011017;28;20033;-70
2021/07/02 06:38:22;;;;;;;12.00;6.43;;;20.10;79.10;;;;;;5005494;28;20029;-70
2021/07/02 06:40:52;;;;;;;10.75;5.75;;;20.10;79.10;;;;;;5010466;28;20034;-70
2021/07/02 06:43:18;;;;;;;9.70;5.72;;;20.10;79.00;;;;;;5011862;28;20526;-69
2021/07/02 06:45:43;;;;;;;9.90;5.35;;;20.10;79.10;;;;;;4993824;28;20041;-69
2021/07/02 06:48:09;;;;;;;13.43;6.55;;;20.10;79.10;;;;;;4991794;28;20115;-69
2021/07/02 06:50:37;;;;;;;11.80;5.78;;;20.10;79.10;;;;;;4991782;28;20026;-68
2021/07/02 06:53:05;;;;;;;10.18;6.28;;;20.30;79.10;;;;;;4992881;28;20109;-69
2021/07/02 06:55:31;;;;;;;11.07;5.60;;;20.10;79.00;;;;;;4990281;28;20029;-69
2021/07/02 06:57:56;;;;;;;11.98;5.95;;;20.10;79.00;;;;;;5005700;28;20803;-68
2021/07/02 07:00:24;;;;;;;11.07;6.20;;;20.10;79.00;;;;;;5007150;28;20052;-70
2021/07/02 07:02:50;;;;;;;13.70;5.90;;;20.10;79.20;;;;;;5024989;28;20083;-68
2021/07/02 07:05:17;;;;;;;11.98;6.05;;;20.10;79.20;;;;;;5002352;28;20037;-68
2021/07/02 07:07:44;;;;;;;12.75;5.85;;;20.10;79.40;;;;;;5007655;28;20450;-69
2021/07/02 07:10:10;;;;;;;10.85;5.82;;;20.10;79.60;;;;;;5008075;28;20256;-71
2021/07/02 07:12:36;;;;;;;12.55;6.30;;;20.10;79.80;;;;;;5008159;28;20026;-69
2021/07/02 07:15:03;;;;;;;12.20;6.07;;;20.10;79.90;;;;;;4994196;28;20454;-71
2021/07/02 07:17:30;;;;;;;11.38;5.85;;;20.10;79.40;;;;;;5004551;28;20025;-68
2021/07/02 07:19:56;;;;;;;11.70;5.80;;;20.10;79.70;;;;;;5007173;28;20079;-67
2021/07/02 07:22:21;;;;;;;10.30;6.18;;;20.10;79.70;;;;;;5025406;28;20425;-68
2021/07/02 07:24:47;;;;;;;11.27;5.95;;;20.10;79.60;;;;;;5025354;28;20069;-65
2021/07/02 07:27:13;;;;;;;9.05;5.40;;;20.10;79.60;;;;;;5024990;28;20038;-69
2021/07/02 07:29:38;;;;;;;11.40;5.07;;;20.20;79.60;;;;;;5018322;28;20045;-64
2021/07/02 07:32:05;;;;;;;12.25;5.28;;;20.20;79.40;;;;;;5006605;28;20169;-65
2021/07/02 07:36:59;;;;;;;13.13;5.53;;;20.20;79.20;;;;;;5022638;28;20034;-68
2021/07/02 07:39:25;;;;;;;9.15;4.97;;;20.30;79.10;;;;;;5008176;28;20349;-66
2021/07/02 07:41:50;;;;;;;11.43;5.68;;;20.30;78.90;;;;;;5008005;28;20048;-69
2021/07/02 07:44:16;;;;;;;10.55;5.20;;;20.30;78.80;;;;;;5009291;28;20112;-69
2021/07/02 07:46:41;;;;;;;9.60;5.05;;;20.30;78.30;;;;;;5011179;28;20053;-70
2021/07/02 07:49:07;;;;;;;11.73;5.07;;;20.30;78.00;;;;;;5019096;28;20025;-68
2021/07/02 07:51:36;;;;;;;11.32;5.03;;;20.40;78.30;;;;;;5021062;28;20092;-68
2021/07/02 07:54:02;;;;;;;11.20;5.28;;;20.30;78.00;;;;;;5031387;28;20022;-68
2021/07/02 07:56:29;;;;;;;11.23;5.38;;;20.30;78.20;;;;;;5017091;28;20021;-69
2021/07/02 07:58:56;;;;;;;11.02;5.63;;;20.30;78.30;;;;;;5017420;28;20057;-69
2021/07/02 08:01:21;;;;;;;11.98;5.35;;;20.30;78.50;;;;;;5035405;28;20025;-69
2021/07/02 08:03:47;;;;;;;11.95;5.35;;;20.30;78.40;;;;;;5017640;28;20112;-69
2021/07/02 08:06:12;;;;;;;12.88;6.30;;;20.30;78.20;;;;;;5017350;28;20080;-69
2021/07/02 08:08:38;;;;;;;14.93;6.38;;;20.30;78.50;;;;;;5034992;28;20032;-69
2021/07/02 08:11:03;;;;;;;17.20;7.32;;;20.30;78.50;;;;;;5034966;28;20041;-69
2021/07/02 08:13:29;;;;;;;16.08;7.30;;;20.30;78.30;;;;;;5035209;28;20022;-69
2021/07/02 08:15:56;;;;;;;14.23;6.38;;;20.30;78.50;;;;;;5017399;28;20018;-69
2021/07/02 08:18:22;;;;;;;15.07;7.00;;;20.30;78.20;;;;;;5031538;28;20479;-68
2021/07/02 08:20:48;;;;;;;13.73;6.43;;;20.30;78.40;;;;;;5033864;28;20083;-67
2021/07/02 08:23:13;;;;;;;21.02;6.93;;;20.30;78.10;;;;;;5034955;28;20109;-68
2021/07/02 08:25:39;;;;;;;11.23;6.45;;;20.30;77.90;;;;;;5016240;28;20029;-68
2021/07/02 08:30:50;;;;;;;13.35;6.75;;;20.30;77.90;;;;;;5033578;28;20083;-68
2021/07/02 08:33:18;;;;;;;12.15;5.80;;;20.30;77.80;;;;;;5034834;28;20022;-69
2021/07/02 08:35:45;;;;;;;13.50;6.22;;;20.30;77.70;;;;;;5016917;28;20479;-69
2021/07/02 08:38:11;;;;;;;12.55;6.95;;;20.30;77.70;;;;;;5034282;28;20029;-70
2021/07/02 08:40:36;;;;;;;16.75;7.65;;;20.30;77.80;;;;;;5033925;28;20021;-67
2021/07/02 08:43:02;;;;;;;15.55;7.78;;;20.30;79.10;;;;;;5034474;28;20078;-69
2021/07/02 08:45:27;;;;;;;14.00;7.30;;;20.30;79.20;;;;;;5016368;28;20028;-69
2021/07/02 08:47:54;;;;;;;17.60;7.00;;;20.30;79.10;;;;;;5034102;28;20040;-68
2021/07/02 08:50:22;;;;;;;15.13;7.57;;;20.40;78.90;;;;;;5016528;28;20022;-68
2021/07/02 08:52:48;;;;;;;12.90;6.80;;;20.30;78.90;;;;;;5034053;28;20018;-68
2021/07/02 08:55:14;;;;;;;16.80;7.22;;;20.30;78.70;;;;;;5033778;28;20022;-69
2021/07/02 08:57:40;;;;;;;16.98;6.22;;;20.30;78.80;;;;;;5016030;28;20036;-70
2021/07/02 09:00:07;;;;;;;16.10;7.13;;;20.30;78.70;;;;;;5034291;28;20204;-66
2021/07/02 09:02:35;;;;;;;13.27;6.78;;;20.30;78.90;;;;;;5016257;28;20033;-69
2021/07/02 09:05:24;;;;;;;13.57;6.75;;;20.30;78.10;;;;;;5034077;28;20025;-68
2021/07/02 09:07:49;;;;;;;15.57;6.95;;;20.30;78.30;;;;;;5014970;28;20032;-68
2021/07/02 09:10:15;;;;;;;16.33;7.68;;;20.30;78.00;;;;;;5014882;28;20025;-68
2021/07/02 09:12:51;;;;;;;15.50;6.50;;;20.30;78.20;;;;;;5040413;28;20025;-68
2021/07/02 09:15:17;;;;;;;12.88;6.70;;;20.30;78.00;;;;;;5045166;28;20014;-69
2021/07/02 09:17:45;;;;;;;13.38;6.97;;;20.30;78.00;;;;;;5032389;28;20124;-69
2021/07/02 09:20:14;;;;;;;14.23;6.88;;;20.30;78.00;;;;;;5033859;28;20483;-67
2021/07/02 09:22:48;;;;;;;14.23;6.78;;;20.30;77.90;;;;;;5015829;28;20502;-70
2021/07/02 09:25:34;;;;;;;14.25;6.82;;;20.30;77.90;;;;;;5016059;28;20487;-67
2021/07/02 09:28:12;;;;;;;15.52;7.28;;;20.30;77.80;;;;;;5033369;28;20022;-67
2021/07/02 09:30:41;;;;;;;15.07;7.93;;;20.30;77.90;;;;;;5032218;28;20105;-68
2021/07/02 09:33:12;;;;;;;15.15;7.20;;;20.30;77.80;;;;;;5033672;28;20021;-69
2021/07/02 09:35:47;;;;;;;17.05;6.80;;;20.30;77.90;;;;;;5015973;28;20029;-67
2021/07/02 09:38:16;;;;;;;15.43;6.82;;;20.30;77.80;;;;;;5033162;28;20033;-68
2021/07/02 09:40:42;;;;;;;16.38;7.15;;;20.30;77.70;;;;;;5033559;28;20025;-67
2021/07/02 09:43:13;;;;;;;14.55;6.78;;;20.30;77.60;;;;;;5033121;28;20499;-68
2021/07/02 09:45:44;;;;;;;;;;;20.30;77.70;;;;;;5016235;28;20041;-69
2021/07/02 09:48:11;;;;;;;13.27;6.65;;;20.30;77.70;;;;;;5015231;28;20355;-68
2021/07/02 09:50:42;;;;;;;11.45;6.47;;;20.30;77.50;;;;;;5013959;28;20067;-68
2021/07/02 09:53:10;;;;;;;13.05;6.57;;;20.30;77.40;;;;;;5032133;28;20483;-68
2021/07/02 09:55:45;;;;;;;13.65;6.65;;;20.40;77.10;;;;;;5031963;28;20392;-68
2021/07/02 09:58:16;;;;;;;14.23;7.18;;;20.40;77.20;;;;;;5032282;28;20026;-68
2021/07/02 10:00:43;;;;;;;15.02;6.95;;;20.40;77.10;;;;;;5033041;28;20025;-68
2021/07/02 10:03:08;;;;;;;20.73;7.32;;;20.40;77.30;;;;;;5031999;28;20060;-69
2021/07/02 10:05:51;;;;;;;14.27;6.78;;;20.40;76.90;;;;;;5033111;28;20557;-68
2021/07/02 10:08:18;;;;;;;20.05;8.13;;;20.40;76.80;;;;;;5032738;28;20029;-69
2021/07/02 10:10:44;;;;;;;14.18;7.05;;;20.50;76.60;;;;;;5032890;28;20124;-69
2021/07/02 10:13:10;;;;;;;20.10;7.15;;;20.40;76.70;;;;;;5032607;28;20471;-69
2021/07/02 10:15:36;;;;;;;12.15;7.35;;;20.50;76.50;;;;;;5032878;28;20101;-69
2021/07/02 10:18:03;;;;;;;14.00;6.38;;;20.50;76.40;;;;;;5010684;28;20372;-69
2021/07/02 10:20:31;;;;;;;19.25;6.30;;;20.50;76.40;;;;;;5031687;28;20028;-68
2021/07/02 10:23:00;;;;;;;13.65;4.75;;;20.50;76.50;;;;;;5014852;28;20026;-68
2021/07/02 10:25:29;;;;;;;17.85;6.15;;;20.50;76.80;;;;;;5016909;28;20021;-69
2021/07/02 10:27:55;;;;;;;12.73;5.72;;;20.50;75.90;;;;;;5007350;28;20065;-69
2021/07/02 10:30:21;;;;;;;11.00;5.22;;;20.50;76.30;;;;;;5000492;28;20099;-69
2021/07/02 10:32:50;;;;;;;21.88;6.10;;;20.50;76.50;;;;;;5002946;28;20021;-69
2021/07/02 10:35:17;;;;;;;25.42;7.13;;;20.60;76.40;;;;;;5014126;28;20030;-69
2021/07/02 10:37:46;;;;;;;27.52;6.30;;;20.60;76.10;;;;;;5004545;28;20033;-69
2021/07/02 10:40:39;;;;;;;20.92;7.18;;;20.70;75.90;;;;;;5012190;28;20028;-69
2021/07/02 10:43:14;;;;;;;25.52;7.32;;;20.60;76.00;;;;;;5011515;28;20046;-70
2021/07/02 10:46:09;;;;;;;23.02;6.93;;;20.60;75.90;;;;;;5012664;28;20022;-69
2021/07/02 10:48:48;;;;;;;23.58;7.32;;;20.70;75.90;;;;;;5012705;28;20041;-67
2021/07/02 10:54:09;;;;;;;17.85;6.05;;;20.70;76.20;;;;;;5012039;28;20553;-67
2021/07/02 10:56:35;;;;;;;16.35;6.30;;;20.70;75.90;;;;;;5014364;28;20054;-68
2021/07/02 10:59:02;;;;;;;14.07;5.88;;;20.70;75.80;;;;;;5031592;28;20105;-67
2021/07/02 11:01:31;;;;;;;12.05;6.03;;;20.70;75.80;;;;;;5014027;28;20029;-67
2021/07/02 11:04:33;;;;;;;13.57;5.65;;;20.60;75.90;;;;;;4998820;28;20033;-67
2021/07/02 11:07:00;;;;;;;11.95;5.22;;;20.70;76.60;;;;;;4999517;28;20059;-67
2021/07/02 11:10:03;;;;;;;15.30;5.43;;;20.70;75.90;;;;;;5013781;28;20079;-67
2021/07/02 11:12:35;;;;;;;16.10;5.55;;;20.70;75.70;;;;;;5031647;28;20021;-67
2021/07/02 11:15:05;;;;;;;13.75;4.75;;;20.80;75.50;;;;;;5031867;28;20032;-66
2021/07/02 11:17:39;;;;;;;11.73;5.33;;;20.70;75.30;;;;;;5031480;28;20021;-64
2021/07/02 11:20:12;;;;;;;11.52;5.20;;;20.80;75.30;;;;;;5013115;28;20068;-65
2021/07/02 11:22:38;;;;;;;15.55;5.43;;;20.70;75.10;;;;;;5030580;28;20029;-66
2021/07/02 11:25:04;;;;;;;11.52;5.70;;;20.80;75.10;;;;;;5030934;28;20037;-65
2021/07/02 11:27:41;;;;;;;15.45;5.72;;;20.80;75.20;;;;;;5031266;28;20021;-68
2021/07/02 11:30:36;;;;;;;13.73;4.95;;;20.80;74.90;;;;;;5030867;28;20466;-65
2021/07/02 11:33:15;;;;;;;15.55;5.28;;;20.80;74.80;;;;;;5029970;28;20014;-66
2021/07/02 11:36:05;;;;;;;9.75;4.90;;;20.80;74.80;;;;;;5028386;28;20097;-68
2021/07/02 11:38:31;;;;;;;14.50;5.25;;;20.80;74.80;;;;;;5029410;28;20060;-69
2021/07/02 11:41:04;;;;;;;17.30;5.60;;;20.80;74.50;;;;;;5030462;28;20549;-68
2021/07/02 11:43:40;;;;;;;15.65;5.35;;;20.80;74.40;;;;;;5030604;28;20442;-65
2021/07/02 11:46:12;;;;;;;15.27;5.78;;;20.80;74.80;;;;;;5099834;22;20037;-75
2021/07/02 11:48:39;;;;;;;16.27;5.68;;;20.80;75.10;;;;;;5038321;28;20037;-74
2021/07/02 11:51:09;;;;;;;13.20;5.38;;;20.80;74.70;;;;;;5040519;28;20028;-74
2021/07/02 11:53:42;;;;;;;14.60;5.13;;;20.90;74.80;;;;;;5065270;28;20031;-74
2021/07/02 11:56:26;;;;;;;14.90;4.90;;;21.00;74.60;;;;;;5060079;28;20375;-74
2021/07/02 12:16:53;;;;;;;10.02;5.05;;;21.00;73.50;;;;;;5037749;28;20457;-69
2021/07/02 12:19:22;;;;;;;11.57;5.38;;;20.90;74.20;;;;;;5041649;28;20045;-71
2021/07/02 12:22:07;;;;;;;11.85;5.50;;;21.00;74.00;;;;;;5041356;28;20078;-71
2021/07/02 12:24:45;;;;;;;11.35;5.10;;;21.00;73.90;;;;;;5040351;28;20029;-69
2021/07/02 12:27:15;;;;;;;12.70;5.13;;;21.00;73.90;;;;;;5040294;28;20020;-70
2021/07/02 12:29:43;;;;;;;7.70;4.28;;;21.00;74.70;;;;;;5040496;28;20018;-70
2021/07/02 12:32:11;;;;;;;28.77;12.27;;;21.00;74.00;;;;;;5041226;28;20017;-67
2021/07/02 12:34:40;;;;;;;36.17;14.43;;;21.00;74.30;;;;;;5040345;28;20018;-70
2021/07/02 12:37:18;;;;;;;18.80;8.68;;;21.00;74.60;;;;;;5039179;28;20051;-67
2021/07/02 12:39:45;;;;;;;19.13;8.48;;;21.00;74.10;;;;;;5060437;28;20022;-70
2021/07/02 12:42:18;;;;;;;17.25;7.97;;;21.00;74.00;;;;;;5031969;28;20111;-68
2021/07/02 12:44:47;;;;;;;19.33;7.78;;;21.10;74.10;;;;;;5029370;28;20056;-68
2021/07/02 12:47:13;;;;;;;17.50;7.95;;;21.10;74.50;;;;;;5036944;28;20021;-67
2021/07/02 12:49:48;;;;;;;17.73;7.60;;;21.10;74.30;;;;;;5037028;28;20108;-68
2021/07/02 12:54:56;;;;;;;21.92;8.85;;;21.10;74.60;;;;;;5029426;28;20445;-66
2021/07/02 12:57:23;;;;;;;20.38;7.38;;;21.20;75.40;;;;;;5028859;28;20030;-67
2021/07/02 12:59:55;;;;;;;18.38;7.15;;;21.20;75.30;;;;;;5043568;28;20108;-67
2021/07/02 13:02:25;;;;;;;17.33;7.28;;;21.20;74.90;;;;;;5039252;28;20049;-67
2021/07/02 13:04:51;;;;;;;17.38;7.18;;;21.20;76.80;;;;;;5032182;28;20239;-66
2021/07/02 13:07:16;;;;;;;17.35;7.93;;;21.20;75.50;;;;;;5027792;28;20119;-67
2021/07/02 13:09:42;;;;;;;12.85;6.68;;;21.20;75.80;;;;;;5035897;28;20025;-70
2021/07/02 13:12:15;;;;;;;16.55;6.68;;;21.20;75.70;;;;;;5033821;28;20508;-68